Placentia, Canada
Current Conditions -  °F | °C
As of 7:00 AM on Tuesday 27 Jan 2015 (Local Time) from CYYT Reporting Station
Broken Clouds Broken Clouds  
Wind Chill: 14°   Ceiling: 20000
Heat Index: 14°   Visibility: 15mi
Dew Point:   Wind: 2mph
Humidity: 79%   Direction: NA
Pressure: 30.44"   Gusts: NA
Location:  47.23°N, 53.97°W
Report Text: CYYT 271000Z VRB02KT 15SM BKN200 M10/M13 A3044 RMK CI7 PRESRR SLP319
Loading
Personal Weather Stations






























Interactive Weather Map New forecast layout! Learn more

10-Day Weather Forecast

Advertisements
Track Severe Weather on mobile